Station: Coonawarra

  Atmospheric Gas Attenuation - ITU Rec 676-11   --------------- db/100km ---------------
Date Time Temp RH % AH g/m3 Dew Point Wind Direction Speed kph Gust kph Barometer mB Rainfall Since 9am 24GHz 47GHz 76GHz 122GHz 134GHz 241GHz
25 00:50 10.9 91 9.05 9.5 0 0 1013.4 0 20.7 27.5 43.2 113.5 108.4 373.2
25 00:40 10.9 91 9.05 9.5 0 0 1013.4 0 20.7 27.5 43.2 113.5 108.4 373.2
25 00:30 11.1 91 9.17 9.7 0 0 1013.6 0 20.9 27.7 43.6 114.6 109.8 378.1
25 00:20 11.2 89 9.02 9.4 0 0 1013.8 0 20.6 27.4 42.9 112.7 107.6 370.4
25 00:10 11.5 91 9.4 10.1 0 0 1013.8 0 21.4 28.0 44.4 116.6 112.5 387.5
25 00:00 11.6 91 9.46 10.2 0 0 1013.9 0 21.5 28.0 44.6 117.2 113.2 390.0
24 23:50 11.7 90 9.41 10.1 0 0 1014 0 21.4 27.9 44.3 116.4 112.4 387.0
24 23:40 11.8 89 9.37 10 0 0 1014.1 0 21.3 27.8 44.1 115.8 111.7 384.6
24 23:30 11.7 89 9.31 9.9 0 0 1014.2 0 21.2 27.7 43.9 115.3 111.0 382.2
24 23:20 11.8 89 9.37 10 0 0 1014.5 0 21.3 27.8 44.1 115.9 111.7 384.7
24 23:10 11.8 89 9.37 10 0 0 1014.5 0 21.3 27.8 44.1 115.9 111.7 384.7
24 23:00 12 87 9.27 10 0 0 1014.5 0 21.1 27.6 43.6 114.5 110.0 378.9
24 22:50 12.1 87 9.33 10 0 0 1014.7 0 21.2 27.7 43.8 115.0 110.7 381.4
24 22:40 12.1 89 9.55 10.4 0 0 1014.8 0 21.7 28.1 44.7 117.5 113.8 392.1
24 22:30 12.3 88 9.56 10.4 4 6 1014.7 0 21.7 28.0 44.6 117.3 113.6 391.6
24 22:20 12.5 86 9.46 10.2 6 6 1015 0 21.5 27.8 44.1 115.9 112.0 385.8
24 22:10 12.7 87 9.69 10.6 6 6 1015.1 0 22.0 28.1 45.0 118.2 114.9 396.0
24 22:00 13.1 82 9.36 10.2 4 6 1015 0 21.3 27.4 43.4 113.9 109.7 378.0
24 21:50 13.9 80 9.59 10.5 2 4 1015.1 0 21.7 27.6 43.9 115.3 111.7 385.1
24 21:40 14.4 77 9.52 10.4 6 7 1015 0 21.5 27.3 43.3 113.8 110.1 379.3
24 21:30 14.5 76 9.45 10.3 7 9 1015 0 21.4 27.1 43.0 112.9 109.0 375.5
24 21:20 14.9 72 9.18 9.9 7 9 1015 0 20.8 26.6 41.6 109.4 104.8 361.0
24 21:10 15.1 71 9.16 9.9 9 9 1015 0 20.7 26.5 41.5 108.9 104.3 359.2
24 21:00 15.3 70 9.14 9.9 7 11 1014.9 0 20.7 26.4 41.3 108.4 103.7 357.3
24 20:50 15.4 68 8.93 9.6 11 11 1014.9 0 20.2 26.0 40.4 106.0 100.8 347.2
24 20:40 15.6 67 8.91 9.6 11 13 1014.9 0 20.2 25.9 40.2 105.5 100.3 345.4
24 20:30 15.9 67 9.07 9.8 11 15 1014.7 0 20.5 26.1 40.7 106.8 102.0 351.3
24 20:20 16.3 66 9.16 10 11 13 1014.8 0 20.7 26.1 40.8 107.2 102.6 353.7
24 20:10 16.7 65 9.24 10.1 11 13 1014.7 0 20.8 26.1 40.9 107.5 103.1 355.5
24 20:00 17.3 62 9.13 10.1 9 15 1014.5 0 20.5 25.8 40.2 105.5 100.9 347.8
24 19:50 17.7 60 9.05 10 11 13 1014.6 0 20.4 25.5 39.7 104.2 99.4 342.5
24 19:40 18.3 57 8.91 9.6 13 17 1014.5 0 20.0 25.1 38.9 102.0 96.9 333.7
24 19:30 18.5 54 8.54 9.2 17 20 1014.4 0 19.2 24.5 37.3 98.0 92.0 316.7
24 19:20 19.1 46 7.54 7.3 13 17 1014.5 0 17.1 22.9 33.4 87.5 79.3 272.1
24 19:10 19 48 7.82 7.9 11 13 1014.5 0 17.7 23.3 34.5 90.3 82.7 284.1
24 19:00 19.3 49 8.13 8.3 17 24 1014.3 0 18.3 23.7 35.5 92.9 86.1 296.1
24 18:50 19.3 46 7.63 7.6 17 20 1014.3 0 17.3 23.0 33.7 88.1 80.1 275.1
24 18:40 19.4 44 7.34 6.9 20 22 1014.1 0 16.7 22.5 32.6 85.2 76.6 262.8
24 18:30 19.5 43 7.22 6.6 20 28 1014.1 0 16.4 22.3 32.1 84.0 75.1 257.6
24 18:20 19.7 38 6.45 5.2 20 24 1014 0 14.8 21.2 29.4 76.6 66.1 226.0
24 18:10 20.1 39 6.78 5.8 13 17 1013.9 0 15.5 21.5 30.3 79.3 69.5 238.0
24 18:00 20.5 40 7.12 6.7 19 26 1013.8 0 16.2 21.9 31.4 82.0 73.0 250.3
24 17:50 20.9 39 7.1 6.5 15 19 1013.8 0 16.1 21.8 31.1 81.4 72.4 248.3
24 17:40 21.5 36 6.79 6 17 19 1013.8 0 15.4 21.2 29.9 78.0 68.4 234.3
24 17:30 21.6 34 6.45 5.3 19 26 1013.8 0 14.7 20.7 28.7 74.9 64.6 220.8
24 17:20 21.7 36 6.87 6 19 22 1013.7 0 15.6 21.3 30.1 78.5 69.1 236.8
24 17:10 21.8 38 7.29 7 17 19 1013.7 0 16.5 21.8 31.4 82.2 73.8 253.1
24 17:00 22.2 39 7.66 7.9 20 30 1013.7 0 17.2 22.3 32.6 85.2 77.6 266.6
24 16:50 22 36 6.99 6.2 19 26 1013.8 0 15.8 21.4 30.4 79.3 70.2 240.7
24 16:40 22.4 34 6.75 6 20 26 1013.8 0 15.3 21.0 29.4 76.8 67.2 230.2
24 16:30 22.6 36 7.23 6.9 20 32 1013.8 0 16.3 21.6 30.9 80.9 72.4 248.3
24 16:20 22.5 35 6.99 6.5 28 32 1013.8 0 15.8 21.3 30.2 78.8 69.8 239.2
24 16:10 22.3 31 6.12 4.4 24 28 1013.9 0 14.0 20.2 27.4 71.3 60.5 206.4
24 16:00 22.1 34 6.64 5.5 22 32 1013.8 0 15.1 20.9 29.1 76.1 66.3 226.8
24 15:50 23 32 6.58 5.5 24 28 1013.8 0 14.9 20.6 28.6 74.7 64.9 222.1
24 15:40 23 31 6.37 5.3 24 32 1013.7 0 14.5 20.3 27.9 72.9 62.6 214.1
24 15:30 22.3 31 6.12 4.7 22 33 1013.9 0 14.0 20.2 27.4 71.3 60.5 206.4
24 15:20 22.3 31 6.12 4.4 24 28 1014 0 14.0 20.2 27.4 71.4 60.5 206.5
24 15:10 23.2 32 6.65 5.9 26 32 1014 0 15.1 20.7 28.8 75.2 65.5 224.2
24 15:00 22.9 36 7.36 7.1 22 35 1014.2 0 16.6 21.7 31.3 81.8 73.6 252.6
24 14:50 22.9 38 7.77 8.1 20 28 1014.1 0 17.4 22.3 32.7 85.6 78.2 268.7
24 14:40 22.5 38 7.59 7.5 24 30 1014.3 0 17.1 22.1 32.2 84.3 76.5 262.9
24 14:30 23.1 40 8.27 8.9 19 32 1014.3 0 18.5 22.9 34.3 90.0 83.7 288.2
24 14:20 23.4 41 8.62 9.4 17 20 1014.4 0 19.2 23.4 35.4 92.9 87.4 301.3
24 14:10 23 41 8.43 9 22 30 1014.5 0 18.8 23.2 35.0 91.6 85.7 295.0
24 14:00 22.7 40 8.08 8.4 22 35 1014.5 0 18.1 22.8 33.9 88.7 81.9 281.9
24 13:50 23 39 8.02 8.5 24 32 1014.6 0 17.9 22.6 33.5 87.8 81.0 278.5
24 13:40 23.9 40 8.65 9.6 22 30 1014.6 0 19.2 23.3 35.3 92.7 87.3 300.7
24 13:30 23.3 41 8.57 9.5 19 33 1014.5 0 19.1 23.3 35.3 92.6 87.0 299.6
24 13:20 22.2 41 8.05 8.4 11 15 1014.6 0 18.0 22.9 34.0 88.9 82.1 282.5
24 13:10 22.3 42 8.29 9 13 17 1014.8 0 18.5 23.2 34.8 91.1 84.8 291.9
24 13:00 22.7 42 8.49 9.4 17 28 1014.7 0 18.9 23.4 35.3 92.5 86.7 298.6
24 12:50 22.6 44 8.84 9.9 13 20 1014.9 0 19.7 23.9 36.6 96.0 91.0 313.5
24 12:40 22.5 43 8.59 9.3 22 26 1015 0 19.2 23.6 35.8 93.8 88.1 303.6
24 12:30 21.9 43 8.3 9 19 26 1015.1 0 18.6 23.3 35.0 91.7 85.4 293.9
24 12:20 22 45 8.73 9.8 24 28 1015.4 0 19.5 23.9 36.5 95.7 90.4 311.4
24 12:10 21.6 46 8.72 9.5 17 22 1015.5 0 19.5 24.0 36.6 96.1 90.7 312.5
24 12:00 21.3 46 8.57 9.3 17 28 1015.5 0 19.2 23.9 36.2 95.0 89.3 307.4
24 11:50 21.2 47 8.71 9.7 19 22 1015.8 0 19.5 24.1 36.8 96.5 91.1 313.7
24 11:40 20.4 48 8.49 9.1 13 15 1015.9 0 19.0 24.0 36.4 95.3 89.3 307.6
24 11:30 20.3 51 8.97 9.9 15 26 1015.8 0 20.1 24.7 38.2 100.2 95.3 328.4
24 11:20 19.7 49 8.32 8.8 9 11 1016 0 18.7 23.9 36.1 94.5 88.1 303.0
24 11:10 19.7 51 8.66 9.5 17 20 1016.2 0 19.4 24.4 37.3 97.9 92.2 317.6
24 11:00 19.4 53 8.84 9.8 13 22 1016.2 0 19.8 24.8 38.1 100.0 94.8 326.6
24 10:50 19.1 54 8.85 9.7 17 20 1016.4 0 19.9 24.9 38.3 100.5 95.3 328.3
24 10:40 18.6 55 8.75 9.5 15 17 1016.5 0 19.7 24.9 38.2 100.2 94.7 326.0
24 10:30 18.6 56 8.91 9.7 13 24 1016.6 0 20.0 25.1 38.8 101.8 96.7 333.0
24 10:20 18.1 59 9.12 10 9 13 1016.7 0 20.5 25.6 39.9 104.6 100.0 344.5
24 10:10 17.8 60 9.11 9.9 11 13 1016.8 0 20.5 25.7 40.0 104.9 100.2 345.3
24 10:00 17.5 63 9.39 10.4 15 24 1016.8 0 21.1 26.2 41.2 108.2 104.2 359.3
24 09:50 17.1 65 9.46 10.5 15 22 1016.8 0 21.3 26.4 41.7 109.5 105.7 364.3
24 09:40 16.6 64 9.04 9.9 19 22 1016.7 0 20.4 25.9 40.3 105.8 100.9 347.4
24 09:30 16.7 67 9.52 10.5 13 24 1016.8 0 21.4 26.7 42.1 110.7 107.0 368.9
24 09:20 15.9 70 9.48 10.4 9 11 1016.8 0 21.4 26.8 42.4 111.4 107.6 370.8
24 09:10 15.3 71 9.27 10.1 7 11 1016.7 0 20.9 26.7 41.9 110.0 105.6 363.8
24 09:00 15.7 72 9.63 10.8 13 17 1016.6 0 21.7 27.1 43.1 113.3 109.8 378.7
24 08:50 15.1 72 9.29 10.1 11 13 1016.8 0 21.0 26.8 42.1 110.5 106.1 365.7
24 08:40 14.7 75 9.44 10.3 13 15 1016.8 0 21.3 27.1 42.9 112.7 108.7 374.6
24 08:30 14.5 76 9.45 10.3 13 19 1016.7 0 21.4 27.2 43.0 113.1 109.1 376.0
24 08:20 14.2 78 9.52 10.4 11 13 1016.5 0 21.5 27.4 43.5 114.3 110.5 380.8

Last Refresh: 25-Nov-2020 01:00:13

Most of the information presented on this site is sourced from the Bureau of Meteorology.  Copyright in all material sourced from the Bureau of Meteorology resides with the Commonwealth of Australia.